Observation data for Aspermont on 12/09/2018      Previous  Date  Next       Current Mesonet Observations  Soil Data  Daily Summary Page  Observations in Plain Language
KASR 090600Z 27003KT M04/M05 A3033 RMK A01 T10421051  RH  095%=      5-min Rain = 0
KASR 090605Z 27002KT M04/M05 A3033 RMK A01 T10421050  RH  095%=      5-min Rain = 0
KASR 090610Z 27003KT M04/M05 A3033 RMK A01 T10441052  RH  095%=      5-min Rain = 0
KASR 090615Z 27003KT M04/M05 A3033 RMK A01 T10431050  RH  096%=      5-min Rain = 0
KASR 090620Z 28003KT M04/M05 A3033 RMK A01 T10431049  RH  096%=      5-min Rain = 0
KASR 090625Z 28003KT M04/M05 A3033 RMK A01 T10441050  RH  096%=      5-min Rain = 0
KASR 090630Z 28003KT M04/M05 A3033 RMK A01 T10441050  RH  096%=      5-min Rain = 0
KASR 090635Z 28003KT M04/M05 A3033 RMK A01 T10431049  RH  097%=      5-min Rain = 0
KASR 090640Z 29003KT M04/M05 A3032 RMK A01 T10441050  RH  096%=      5-min Rain = 0
KASR 090645Z 30003KT M04/M05 A3032 RMK A01 T10441050  RH  096%=      5-min Rain = 0
KASR 090650Z 30003KT M05/M05 A3032 RMK A01 T10461052  RH  096%=      5-min Rain = 0
KASR 090655Z 30003KT M05/M05 A3032 RMK A01 T10471054  RH  096%=      5-min Rain = 0
KASR 090700Z 30003KT M05/M05 A3032 RMK A01 T10471053  RH  097%=      5-min Rain = 0
KASR 090705Z 30003KT M05/M05 A3032 RMK A01 T10481054  RH  097%=      5-min Rain = 0
KASR 090710Z 28003KT M05/M05 A3033 RMK A01 T10471052  RH  097%=      5-min Rain = 0
KASR 090715Z 28003KT M05/M05 A3033 RMK A01 T10471053  RH  097%=      5-min Rain = 0
KASR 090720Z 28002KT M05/M05 A3033 RMK A01 T10481053  RH  097%=      5-min Rain = 0
KASR 090725Z 28002KT M05/M05 A3033 RMK A01 T10491054  RH  097%=      5-min Rain = 0
KASR 090730Z 28002KT M05/M06 A3033 RMK A01 T10511056  RH  097%=      5-min Rain = 0
KASR 090735Z 28002KT M05/M06 A3033 RMK A01 T10521057  RH  097%=      5-min Rain = 0
KASR 090740Z 27002KT M05/M06 A3033 RMK A01 T10521057  RH  098%=      5-min Rain = 0
KASR 090745Z 28003KT M05/M06 A3033 RMK A01 T10511056  RH  098%=      5-min Rain = 0
KASR 090750Z 28003KT M05/M06 A3033 RMK A01 T10521056  RH  098%=      5-min Rain = 0
KASR 090755Z 27003KT M05/M05 A3033 RMK A01 T10501054  RH  098%=      5-min Rain = 0
KASR 090800Z 27003KT M05/M06 A3033 RMK A01 T10511056  RH  098%=      5-min Rain = 0
KASR 090805Z 27003KT M05/M06 A3033 RMK A01 T10521057  RH  098%=      5-min Rain = 0
KASR 090810Z 27003KT M05/M06 A3033 RMK A01 T10541058  RH  098%=      5-min Rain = 0
KASR 090815Z 26003KT M06/M06 A3033 RMK A01 T10561061  RH  098%=      5-min Rain = 0
KASR 090820Z 26004KT M05/M06 A3033 RMK A01 T10531056  RH  099%=      5-min Rain = 0
KASR 090825Z 26004KT M05/M06 A3033 RMK A01 T10531057  RH  098%=      5-min Rain = 0
KASR 090830Z 26004KT M05/M06 A3033 RMK A01 T10521055  RH  098%=      5-min Rain = 0
KASR 090835Z 27004KT M05/M05 A3033 RMK A01 T10511054  RH  098%=      5-min Rain = 0
KASR 090840Z 27004KT M05/M06 A3033 RMK A01 T10521056  RH  098%=      5-min Rain = 0
KASR 090845Z 28003KT M05/M06 A3033 RMK A01 T10531057  RH  098%=      5-min Rain = 0
KASR 090850Z 29004KT M06/M06 A3032 RMK A01 T10551060  RH  098%=      5-min Rain = 0
KASR 090855Z 29003KT M06/M06 A3032 RMK A01 T10571062  RH  098%=      5-min Rain = 0
KASR 090900Z 30004KT M06/M06 A3032 RMK A01 T10571061  RH  098%=      5-min Rain = 0
KASR 090905Z 30004KT M06/M06 A3032 RMK A01 T10571061  RH  098%=      5-min Rain = 0
KASR 090910Z 30004KT M06/M06 A3032 RMK A01 T10581062  RH  098%=      5-min Rain = 0
KASR 090915Z 28004KT M06/M06 A3033 RMK A01 T10561060  RH  098%=      5-min Rain = 0
KASR 090920Z 28004KT M06/M06 A3033 RMK A01 T10581062  RH  098%=      5-min Rain = 0
KASR 090925Z 27005KT M06/M06 A3033 RMK A01 T10591063  RH  098%=      5-min Rain = 0
KASR 090930Z 28005KT M06/M06 A3033 RMK A01 T10581062  RH  098%=      5-min Rain = 0
KASR 090935Z 29004KT M06/M06 A3033 RMK A01 T10571061  RH  098%=      5-min Rain = 0
KASR 090940Z 29003KT M06/M06 A3033 RMK A01 T10551059  RH  098%=      5-min Rain = 0
KASR 090945Z 29003KT M05/M06 A3033 RMK A01 T10531057  RH  098%=      5-min Rain = 0
KASR 090950Z 30003KT M05/M06 A3033 RMK A01 T10531058  RH  098%=      5-min Rain = 0
KASR 090955Z 29003KT M05/M06 A3033 RMK A01 T10541060  RH  097%=      5-min Rain = 0
KASR 091000Z 28003KT M05/M06 A3033 RMK A01 T10531059  RH  097%=      5-min Rain = 0
KASR 091005Z 29003KT M05/M06 A3033 RMK A01 T10541060  RH  097%=      5-min Rain = 0
KASR 091010Z 27004KT M05/M06 A3033 RMK A01 T10541060  RH  097%=      5-min Rain = 0
KASR 091015Z 26004KT M06/M06 A3033 RMK A01 T10551062  RH  096%=      5-min Rain = 0
KASR 091020Z 27004KT M06/M06 A3033 RMK A01 T10571064  RH  096%=      5-min Rain = 0
KASR 091025Z 27004KT M06/M07 A3033 RMK A01 T10591066  RH  095%=      5-min Rain = 0
KASR 091030Z 28004KT M06/M07 A3033 RMK A01 T10601068  RH  095%=      5-min Rain = 0
KASR 091035Z 29004KT M06/M07 A3033 RMK A01 T10601068  RH  095%=      5-min Rain = 0
KASR 091040Z 28003KT M06/M07 A3033 RMK A01 T10601069  RH  095%=      5-min Rain = 0
KASR 091045Z 27003KT M06/M07 A3033 RMK A01 T10581067  RH  094%=      5-min Rain = 0
KASR 091050Z 27004KT M06/M07 A3033 RMK A01 T10581068  RH  094%=      5-min Rain = 0
KASR 091055Z 27004KT M06/M07 A3033 RMK A01 T10601071  RH  093%=      5-min Rain = 0
KASR 091100Z 26004KT M06/M07 A3033 RMK A01 T10601072  RH  093%=      5-min Rain = 0
KASR 091105Z 27005KT M06/M07 A3033 RMK A01 T10621074  RH  092%=      5-min Rain = 0
KASR 091110Z 28005KT M06/M08 A3034 RMK A01 T10641076  RH  092%=      5-min Rain = 0
KASR 091115Z 28005KT M06/M08 A3034 RMK A01 T10631075  RH  092%=      5-min Rain = 0
KASR 091120Z 27004KT M06/M08 A3034 RMK A01 T10621075  RH  092%=      5-min Rain = 0
KASR 091125Z 27004KT M06/M07 A3034 RMK A01 T10611074  RH  092%=      5-min Rain = 0
KASR 091130Z 27004KT M06/M07 A3035 RMK A01 T10601074  RH  091%=      5-min Rain = 0
KASR 091135Z 28004KT M06/M07 A3035 RMK A01 T10601073  RH  091%=      5-min Rain = 0
KASR 091140Z 28004KT M06/M07 A3035 RMK A01 T10581072  RH  091%=      5-min Rain = 0
KASR 091145Z 28004KT M06/M07 A3035 RMK A01 T10581074  RH  090%=      5-min Rain = 0
KASR 091150Z 27003KT M06/M07 A3035 RMK A01 T10571073  RH  089%=      5-min Rain = 0
KASR 091155Z 28003KT M06/M07 A3035 RMK A01 T10561074  RH  089%=      5-min Rain = 0
KASR 091200Z 28003KT M06/M08 A3035 RMK A01 T10571075  RH  088%=      5-min Rain = 0
KASR 091205Z 28004KT M06/M08 A3035 RMK A01 T10591077  RH  089%=      5-min Rain = 0
KASR 091210Z 28004KT M06/M08 A3035 RMK A01 T10601077  RH  089%=      5-min Rain = 0
KASR 091215Z 28004KT M06/M08 A3035 RMK A01 T10611078  RH  089%=      5-min Rain = 0
KASR 091220Z 28004KT M06/M08 A3036 RMK A01 T10631079  RH  090%=      5-min Rain = 0
KASR 091225Z 27003KT M07/M08 A3036 RMK A01 T10661081  RH  090%=      5-min Rain = 0
KASR 091230Z 27003KT M07/M08 A3036 RMK A01 T10671082  RH  090%=      5-min Rain = 0
KASR 091235Z 28003KT M07/M08 A3036 RMK A01 T10671081  RH  091%=      5-min Rain = 0
KASR 091240Z 28004KT M07/M08 A3036 RMK A01 T10661080  RH  091%=      5-min Rain = 0
KASR 091245Z 28004KT M07/M08 A3036 RMK A01 T10671081  RH  091%=      5-min Rain = 0
KASR 091250Z 27004KT M07/M08 A3037 RMK A01 T10671081  RH  091%=      5-min Rain = 0
KASR 091255Z 26004KT M07/M08 A3037 RMK A01 T10661081  RH  090%=      5-min Rain = 0
KASR 091300Z 26004KT M06/M08 A3037 RMK A01 T10631079  RH  090%=      5-min Rain = 0
KASR 091305Z 27004KT M06/M08 A3037 RMK A01 T10611080  RH  088%=      5-min Rain = 0
KASR 091310Z 26004KT M06/M08 A3037 RMK A01 T10611081  RH  087%=      5-min Rain = 0
KASR 091315Z 27005KT M06/M08 A3037 RMK A01 T10631083  RH  087%=      5-min Rain = 0
KASR 091320Z 27005KT M06/M08 A3037 RMK A01 T10641084  RH  087%=      5-min Rain = 0
KASR 091325Z 27004KT M07/M08 A3037 RMK A01 T10661084  RH  088%=      5-min Rain = 0
KASR 091330Z 27004KT M07/M08 A3038 RMK A01 T10651083  RH  088%=      5-min Rain = 0
KASR 091335Z 27004KT M06/M08 A3038 RMK A01 T10641082  RH  088%=      5-min Rain = 0
KASR 091340Z 27005KT M06/M08 A3038 RMK A01 T10641083  RH  088%=      5-min Rain = 0
KASR 091345Z 28004KT M07/M09 A3038 RMK A01 T10661085  RH  087%=      5-min Rain = 0
KASR 091350Z 28004KT M07/M09 A3038 RMK A01 T10681086  RH  088%=      5-min Rain = 0
KASR 091355Z 27003KT M07/M08 A3039 RMK A01 T10671084  RH  089%=      5-min Rain = 0
KASR 091400Z 27003KT M07/M08 A3039 RMK A01 T10651082  RH  088%=      5-min Rain = 0
KASR 091405Z 27003KT M06/M08 A3039 RMK A01 T10621081  RH  088%=      5-min Rain = 0
KASR 091410Z 27004KT M06/M08 A3039 RMK A01 T10601081  RH  086%=      5-min Rain = 0
KASR 091415Z 28003KT M06/M08 A3039 RMK A01 T10571079  RH  085%=      5-min Rain = 0
KASR 091420Z 28003KT M05/M08 A3039 RMK A01 T10541078  RH  084%=      5-min Rain = 0
KASR 091425Z 29004KT M05/M08 A3039 RMK A01 T10541078  RH  084%=      5-min Rain = 0
KASR 091430Z 28004KT M05/M08 A304 RMK A01 T10531077  RH  084%=      5-min Rain = 0
KASR 091435Z 28004KT M05/M08 A304 RMK A01 T10511075  RH  085%=      5-min Rain = 0
KASR 091440Z 28004KT M05/M07 A304 RMK A01 T10491074  RH  084%=      5-min Rain = 0
KASR 091445Z 28004KT M05/M07 A304 RMK A01 T10471073  RH  083%=      5-min Rain = 0
KASR 091450Z 28004KT M04/M07 A304 RMK A01 T10441070  RH  083%=      5-min Rain = 0
KASR 091455Z 28004KT M04/M07 A304 RMK A01 T10421069  RH  083%=      5-min Rain = 0
KASR 091500Z 29003KT M04/M07 A3041 RMK A01 T10401067  RH  082%=      5-min Rain = 0
KASR 091505Z 29004KT M04/M07 A3041 RMK A01 T10391067  RH  082%=      5-min Rain = 0
KASR 091510Z 29004KT M04/M07 A3041 RMK A01 T10381066  RH  082%=      5-min Rain = 0
KASR 091515Z 29004KT M04/M06 A3042 RMK A01 T10361064  RH  081%=      5-min Rain = 0
KASR 091520Z 29004KT M03/M06 A3042 RMK A01 T10321062  RH  081%=      5-min Rain = 0
KASR 091525Z 28004KT M03/M06 A3042 RMK A01 T10291060  RH  080%=      5-min Rain = 0
KASR 091530Z 29004KT M03/M06 A3042 RMK A01 T10261059  RH  079%=      5-min Rain = 0
KASR 091535Z 30005KT M03/M06 A3042 RMK A01 T10251058  RH  079%=      5-min Rain = 0
KASR 091540Z 30004KT M02/M06 A3042 RMK A01 T10231055  RH  080%=      5-min Rain = 0
KASR 091545Z 30004KT M02/M05 A3042 RMK A01 T10211053  RH  079%=      5-min Rain = 0
KASR 091550Z 30004KT M02/M05 A3042 RMK A01 T10181052  RH  078%=      5-min Rain = 0
KASR 091555Z 32005KT M01/M05 A3043 RMK A01 T10141052  RH  076%=      5-min Rain = 0
KASR 091600Z 32005KT M01/M06 A3043 RMK A01 T10111056  RH  072%=      5-min Rain = 0
KASR 091605Z 32006KT M01/M06 A3043 RMK A01 T10091055  RH  072%=      5-min Rain = 0
KASR 091610Z 32006KT M01/M05 A3043 RMK A01 T10081053  RH  072%=      5-min Rain = 0
KASR 091615Z 32007KT M01/M06 A3043 RMK A01 T10051055  RH  070%=      5-min Rain = 0
KASR 091620Z 32007KT M00/M06 A3043 RMK A01 T10041056  RH  069%=      5-min Rain = 0
KASR 091625Z 32006KT M00/M05 A3043 RMK A01 T10031053  RH  070%=      5-min Rain = 0
KASR 091630Z 32005KT M00/M05 A3043 RMK A01 T10021050  RH  071%=      5-min Rain = 0
KASR 091635Z 32006KT 00/05 A3043 RMK A01 T00000-49  RH  070%=      5-min Rain = 0
KASR 091640Z 33005KT 00/M05 A3043 RMK A01 T00021050  RH  069%=      5-min Rain = 0
KASR 091645Z 32004KT 00/M05 A3043 RMK A01 T00031048  RH  069%=      5-min Rain = 0
KASR 091650Z 31005KT 00/M05 A3043 RMK A01 T00041046  RH  070%=      5-min Rain = 0
KASR 091655Z 31006KT 00/M05 A3043 RMK A01 T00031048  RH  069%=      5-min Rain = 0
KASR 091700Z 31005KT 01/M05 A3043 RMK A01 T00051047  RH  069%=      5-min Rain = 0
KASR 091705Z 31006KT 01/M05 A3043 RMK A01 T00061047  RH  069%=      5-min Rain = 0
KASR 091710Z 31004KT 01/M05 A3043 RMK A01 T00071047  RH  068%=      5-min Rain = 0
KASR 091715Z 31005KT 01/M05 A3043 RMK A01 T00091047  RH  067%=      5-min Rain = 0
KASR 091720Z 31005KT 01/M05 A3043 RMK A01 T00091047  RH  067%=      5-min Rain = 0
KASR 091725Z 31006KT 01/M05 A3043 RMK A01 T00101045  RH  067%=      5-min Rain = 0
KASR 091730Z 31004KT 01/M04 A3043 RMK A01 T00121042  RH  068%=      5-min Rain = 0
KASR 091735Z 32005KT 01/M04 A3042 RMK A01 T00141042  RH  067%=      5-min Rain = 0
KASR 091740Z 32004KT 02/M04 A3042 RMK A01 T00161041  RH  067%=      5-min Rain = 0
KASR 091745Z 32004KT 02/M04 A3042 RMK A01 T00171040  RH  067%=      5-min Rain = 0
KASR 091750Z 32005KT 02/M04 A3042 RMK A01 T00171040  RH  067%=      5-min Rain = 0
KASR 091755Z 32004KT 02/M04 A3042 RMK A01 T00181038  RH  067%=      5-min Rain = 0
KASR 091800Z 32004KT 02/M04 A3042 RMK A01 T00191040  RH  066%=      5-min Rain = 0
KASR 091805Z 32003KT 02/M04 A3041 RMK A01 T00201039  RH  065%=      5-min Rain = 0
KASR 091810Z 31004KT 02/M04 A3041 RMK A01 T00221040  RH  065%=      5-min Rain = 0
KASR 091815Z 31004KT 02/M04 A3041 RMK A01 T00231038  RH  065%=      5-min Rain = 0
KASR 091820Z 32004KT 02/M04 A304 RMK A01 T00231040  RH  064%=      5-min Rain = 0
KASR 091825Z 33004KT 03/M04 A304 RMK A01 T00251038  RH  064%=      5-min Rain = 0
KASR 091830Z 34004KT 03/M04 A304 RMK A01 T00261038  RH  063%=      5-min Rain = 0
KASR 091835Z 33004KT 03/M04 A3039 RMK A01 T00281036  RH  064%=      5-min Rain = 0
KASR 091840Z 33005KT 03/M04 A3039 RMK A01 T00291038  RH  062%=      5-min Rain = 0
KASR 091845Z 33005KT 03/M04 A3039 RMK A01 T00291039  RH  062%=      5-min Rain = 0
KASR 091850Z 33004KT 03/M04 A3039 RMK A01 T00301038  RH  061%=      5-min Rain = 0
KASR 091855Z 33004KT 03/M04 A3039 RMK A01 T00321037  RH  061%=      5-min Rain = 0
KASR 091900Z 33005KT 03/M04 A3039 RMK A01 T00331037  RH  061%=      5-min Rain = 0
KASR 091905Z 33004KT 04/M04 A3039 RMK A01 T00351036  RH  061%=      5-min Rain = 0.01
KASR 091910Z 33006KT 04/M04 A3038 RMK A01 T00351042  RH  058%=      5-min Rain = 0
KASR 091915Z 34006KT 04/M04 A3038 RMK A01 T00361040  RH  058%=      5-min Rain = 0.01
KASR 091920Z 35005KT 04/M04 A3038 RMK A01 T00381038  RH  059%=      5-min Rain = 0.01
KASR 091925Z 33004KT 04/M04 A3037 RMK A01 T00391038  RH  058%=      5-min Rain = 0
KASR 091930Z 33006KT 04/M04 A3037 RMK A01 T00401044  RH  055%=      5-min Rain = 0.01
KASR 091935Z 32004KT 04/M04 A3037 RMK A01 T00411036  RH  058%=      5-min Rain = 0
KASR 091940Z 33006KT 04/M04 A3037 RMK A01 T00411043  RH  055%=      5-min Rain = 0.01
KASR 091945Z 33006KT 04/M04 A3037 RMK A01 T00411044  RH  054%=      5-min Rain = 0
KASR 091950Z 33006KT 04/M05 A3037 RMK A01 T00411045  RH  054%=      5-min Rain = 0
KASR 091955Z 33006KT 04/M05 A3037 RMK A01 T00421050  RH  052%=      5-min Rain = 0.01
KASR 092000Z 34006KT 04/M05 A3037 RMK A01 T00421051  RH  051%=      5-min Rain = 0.01
KASR 092005Z 34006KT 04/M05 A3036 RMK A01 T00431049  RH  052%=      5-min Rain = 0
KASR 092010Z 34006KT 04/M05 A3037 RMK A01 T00441045  RH  053%=      5-min Rain = 0.01
KASR 092015Z 34006KT 04/M05 A3037 RMK A01 T00441051  RH  051%=      5-min Rain = 0
KASR 092020Z 33005KT 05/M05 A3036 RMK A01 T00451046  RH  052%=      5-min Rain = 0
KASR 092025Z 34006KT 05/M05 A3036 RMK A01 T00461046  RH  052%=      5-min Rain = 0.01
KASR 092030Z 32006KT 05/M05 A3036 RMK A01 T00461052  RH  049%=      5-min Rain = 0
KASR 092035Z 33005KT 05/M05 A3037 RMK A01 T00471054  RH  049%=      5-min Rain = 0.01
KASR 092040Z 32005KT 05/M05 A3037 RMK A01 T00481054  RH  048%=      5-min Rain = 0
KASR 092045Z 31006KT 05/M05 A3037 RMK A01 T00501054  RH  047%=      5-min Rain = 0.01
KASR 092050Z 32007KT 05/M06 A3037 RMK A01 T00491061  RH  045%=      5-min Rain = 0
KASR 092055Z 33008KT 05/M07 A3037 RMK A01 T00481066  RH  044%=      5-min Rain = 0
KASR 092100Z 31007KT 05/M06 A3037 RMK A01 T00481062  RH  045%=      5-min Rain = 0
KASR 092105Z 32007KT 05/M06 A3037 RMK A01 T00491059  RH  046%=      5-min Rain = 0.01
KASR 092110Z 33006KT 05/M06 A3036 RMK A01 T00501060  RH  045%=      5-min Rain = 0
KASR 092115Z 33008KT 05/M06 A3036 RMK A01 T00491062  RH  045%=      5-min Rain = 0.01
KASR 092120Z 32006KT 05/M06 A3036 RMK A01 T00501058  RH  046%=      5-min Rain = 0
KASR 092125Z 33008KT 05/M05 A3036 RMK A01 T00501054  RH  048%=      5-min Rain = 0
KASR 092130Z 33008KT 05/M06 A3036 RMK A01 T00491056  RH  047%=      5-min Rain = 0.01
KASR 092135Z 33007KT 05/M05 A3036 RMK A01 T00501052  RH  048%=      5-min Rain = 0
KASR 092140Z 33007KT 05/M04 A3036 RMK A01 T00511043  RH  051%=      5-min Rain = 0
KASR 092145Z 33007KT 05/M05 A3036 RMK A01 T00511046  RH  050%=      5-min Rain = 0
KASR 092150Z 31007KT 05/M06 A3036 RMK A01 T00511055  RH  047%=      5-min Rain = 0.01
KASR 092155Z 31006KT 05/M06 A3036 RMK A01 T00521058  RH  045%=      5-min Rain = 0
KASR 092200Z 33006KT 05/M05 A3036 RMK A01 T00521048  RH  049%=      5-min Rain = 0
KASR 092205Z 33007KT 05/M04 A3036 RMK A01 T00511039  RH  053%=      5-min Rain = 0.01
KASR 092210Z 33007KT 05/M04 A3036 RMK A01 T00501040  RH  053%=      5-min Rain = 0
KASR 092215Z 32007KT 05/M05 A3036 RMK A01 T00501049  RH  049%=      5-min Rain = 0
KASR 092220Z 33007KT 05/M05 A3036 RMK A01 T00501045  RH  051%=      5-min Rain = 0.01
KASR 092225Z 33006KT 05/M04 A3036 RMK A01 T00491039  RH  054%=      5-min Rain = 0
KASR 092230Z 34006KT 05/M04 A3037 RMK A01 T00491041  RH  053%=      5-min Rain = 0
KASR 092235Z 33006KT 05/M04 A3037 RMK A01 T00491042  RH  052%=      5-min Rain = 0
KASR 092240Z 32005KT 05/M03 A3037 RMK A01 T00491032  RH  056%=      5-min Rain = 0
KASR 092245Z 33006KT 05/M04 A3037 RMK A01 T00471035  RH  056%=      5-min Rain = 0
KASR 092250Z 33006KT 05/M04 A3037 RMK A01 T00471038  RH  055%=      5-min Rain = 0
KASR 092255Z 32005KT 05/M04 A3037 RMK A01 T00461036  RH  056%=      5-min Rain = 0
KASR 092300Z 32005KT 05/M03 A3037 RMK A01 T00451033  RH  058%=      5-min Rain = 0
KASR 092305Z 32005KT 04/M04 A3037 RMK A01 T00421035  RH  058%=      5-min Rain = 0
KASR 092310Z 33006KT 04/M04 A3037 RMK A01 T00401035  RH  059%=      5-min Rain = 0
KASR 092315Z 33006KT 04/M04 A3037 RMK A01 T00371035  RH  060%=      5-min Rain = 0.01
KASR 092320Z 33006KT 03/M04 A3037 RMK A01 T00341037  RH  061%=      5-min Rain = 0
KASR 092325Z 33005KT 03/M04 A3037 RMK A01 T00321038  RH  061%=      5-min Rain = 0
KASR 092330Z 33005KT 03/M04 A3036 RMK A01 T00301040  RH  061%=      5-min Rain = 0
KASR 092335Z 34004KT 03/M04 A3036 RMK A01 T00291040  RH  061%=      5-min Rain = 0
KASR 092340Z 34004KT 03/M04 A3036 RMK A01 T00271038  RH  063%=      5-min Rain = 0
KASR 092345Z 34004KT 03/M04 A3036 RMK A01 T00271040  RH  062%=      5-min Rain = 0
KASR 092350Z 34004KT 03/M04 A3036 RMK A01 T00251039  RH  063%=      5-min Rain = 0
KASR 092355Z 34004KT 02/M04 A3037 RMK A01 T00231037  RH  065%=      5-min Rain = 0
KASR 100000Z 34004KT 02/M04 A3037 RMK A01 T00201038  RH  066%=      5-min Rain = 0
KASR 100005Z 34004KT 02/M04 A3037 RMK A01 T00181038  RH  067%=      5-min Rain = 0
KASR 100010Z 34003KT 02/M04 A3037 RMK A01 T00151037  RH  069%=      5-min Rain = 0
KASR 100015Z 34003KT 01/M04 A3037 RMK A01 T00121037  RH  070%=      5-min Rain = 0
KASR 100020Z 34003KT 01/M04 A3037 RMK A01 T00091039  RH  071%=      5-min Rain = 0
KASR 100025Z 33002KT 01/M04 A3037 RMK A01 T00051039  RH  073%=      5-min Rain = 0
KASR 100030Z 30000KT 01/M04 A3037 RMK A01 T00051037  RH  074%=      5-min Rain = 0
KASR 100035Z 25001KT M00/M04 A3037 RMK A01 T10011042  RH  075%=      5-min Rain = 0
KASR 100040Z 27001KT M00/M04 A3037 RMK A01 T10031040  RH  077%=      5-min Rain = 0
KASR 100045Z 26001KT M01/M04 A3037 RMK A01 T10071043  RH  077%=      5-min Rain = 0
KASR 100050Z 23001KT M01/M04 A3037 RMK A01 T10071042  RH  078%=      5-min Rain = 0
KASR 100055Z 24001KT M00/M04 A3037 RMK A01 T10011044  RH  074%=      5-min Rain = 0
KASR 100100Z 25002KT M00/M04 A3037 RMK A01 T10011044  RH  074%=      5-min Rain = 0
KASR 100105Z 24003KT 00/M04 A3037 RMK A01 T00011042  RH  073%=      5-min Rain = 0
KASR 100110Z 25003KT M00/M04 A3037 RMK A01 T10011041  RH  075%=      5-min Rain = 0
KASR 100115Z 25004KT M00/M04 A3037 RMK A01 T10021040  RH  076%=      5-min Rain = 0
KASR 100120Z 24004KT M00/M04 A3037 RMK A01 T10021040  RH  077%=      5-min Rain = 0
KASR 100125Z 25004KT M00/M04 A3037 RMK A01 T10031041  RH  076%=      5-min Rain = 0
KASR 100130Z 26004KT M00/M04 A3037 RMK A01 T10011043  RH  074%=      5-min Rain = 0
KASR 100135Z 26005KT 00/04 A3037 RMK A01 T00-00-42  RH  074%=      5-min Rain = 0
KASR 100140Z 25004KT M00/M04 A3037 RMK A01 T10031043  RH  075%=      5-min Rain = 0
KASR 100145Z 24004KT M01/M04 A3037 RMK A01 T10071043  RH  077%=      5-min Rain = 0
KASR 100150Z 25004KT M01/M04 A3037 RMK A01 T10071043  RH  077%=      5-min Rain = 0
KASR 100155Z 25004KT M01/M05 A3038 RMK A01 T10051045  RH  075%=      5-min Rain = 0
KASR 100200Z 25003KT M01/M05 A3038 RMK A01 T10071046  RH  075%=      5-min Rain = 0
KASR 100205Z 26002KT M01/M05 A3039 RMK A01 T10071048  RH  075%=      5-min Rain = 0
KASR 100210Z 27003KT M01/M05 A3039 RMK A01 T10081048  RH  075%=      5-min Rain = 0
KASR 100215Z 27003KT M01/M05 A3039 RMK A01 T10061047  RH  075%=      5-min Rain = 0
KASR 100220Z 26003KT M01/M05 A3039 RMK A01 T10051048  RH  074%=      5-min Rain = 0
KASR 100225Z 27003KT M01/M05 A3039 RMK A01 T10071048  RH  075%=      5-min Rain = 0
KASR 100230Z 28003KT M01/M05 A3039 RMK A01 T10131049  RH  077%=      5-min Rain = 0
KASR 100235Z 28003KT M02/M05 A304 RMK A01 T10151050  RH  078%=      5-min Rain = 0
KASR 100240Z 28003KT M02/M05 A304 RMK A01 T10151048  RH  079%=      5-min Rain = 0
KASR 100245Z 27003KT M01/M05 A304 RMK A01 T10111047  RH  077%=      5-min Rain = 0
KASR 100250Z 27003KT M01/M05 A304 RMK A01 T10131048  RH  078%=      5-min Rain = 0
KASR 100255Z 27004KT M01/M05 A304 RMK A01 T10121048  RH  078%=      5-min Rain = 0
KASR 100300Z 27004KT M01/M05 A304 RMK A01 T10121048  RH  078%=      5-min Rain = 0
KASR 100305Z 26004KT M01/M05 A304 RMK A01 T10121047  RH  078%=      5-min Rain = 0
KASR 100310Z 26003KT M02/M05 A304 RMK A01 T10151048  RH  079%=      5-min Rain = 0
KASR 100315Z 25003KT M02/M05 A304 RMK A01 T10161047  RH  080%=      5-min Rain = 0
KASR 100320Z 25003KT M02/M05 A304 RMK A01 T10151046  RH  080%=      5-min Rain = 0
KASR 100325Z 25004KT M02/M05 A304 RMK A01 T10161046  RH  081%=      5-min Rain = 0
KASR 100330Z 25004KT M01/M05 A3039 RMK A01 T10121045  RH  079%=      5-min Rain = 0
KASR 100335Z 25004KT M01/M05 A3039 RMK A01 T10111046  RH  078%=      5-min Rain = 0
KASR 100340Z 25005KT M01/M05 A3039 RMK A01 T10111046  RH  078%=      5-min Rain = 0
KASR 100345Z 24005KT M01/M05 A3039 RMK A01 T10111046  RH  078%=      5-min Rain = 0
KASR 100350Z 24005KT M01/M05 A3039 RMK A01 T10121045  RH  079%=      5-min Rain = 0
KASR 100355Z 24005KT M01/M05 A3039 RMK A01 T10111045  RH  079%=      5-min Rain = 0
KASR 100400Z 24005KT M01/M05 A3039 RMK A01 T10111045  RH  079%=      5-min Rain = 0
KASR 100405Z 24005KT M01/M04 A3039 RMK A01 T10111044  RH  079%=      5-min Rain = 0
KASR 100410Z 24004KT M01/M04 A3039 RMK A01 T10121044  RH  079%=      5-min Rain = 0
KASR 100415Z 24004KT M01/M04 A3039 RMK A01 T10111043  RH  080%=      5-min Rain = 0
KASR 100420Z 23004KT M01/M04 A3039 RMK A01 T10101043  RH  079%=      5-min Rain = 0
KASR 100425Z 24004KT M01/M04 A3039 RMK A01 T10111042  RH  080%=      5-min Rain = 0
KASR 100430Z 24004KT M01/M04 A3039 RMK A01 T10101042  RH  080%=      5-min Rain = 0
KASR 100435Z 24004KT M01/M04 A3039 RMK A01 T10091041  RH  080%=      5-min Rain = 0
KASR 100440Z 24004KT M01/M04 A3039 RMK A01 T10091040  RH  080%=      5-min Rain = 0
KASR 100445Z 25004KT M01/M04 A304 RMK A01 T10091040  RH  081%=      5-min Rain = 0
KASR 100450Z 25004KT M01/M04 A304 RMK A01 T10111041  RH  081%=      5-min Rain = 0
KASR 100455Z 24004KT M01/M04 A304 RMK A01 T10121040  RH  082%=      5-min Rain = 0
KASR 100500Z 23004KT M01/M04 A3039 RMK A01 T10121040  RH  082%=      5-min Rain = 0
KASR 100505Z 22004KT M01/M04 A3039 RMK A01 T10131041  RH  083%=      5-min Rain = 0
KASR 100510Z 23004KT M01/M04 A3039 RMK A01 T10141040  RH  083%=      5-min Rain = 0
KASR 100515Z 22004KT M01/M04 A3039 RMK A01 T10141040  RH  083%=      5-min Rain = 0
KASR 100520Z 22005KT M01/M04 A3038 RMK A01 T10141040  RH  083%=      5-min Rain = 0
KASR 100525Z 23005KT M01/M04 A3038 RMK A01 T10141040  RH  083%=      5-min Rain = 0
KASR 100530Z 23006KT M02/M04 A3038 RMK A01 T10151040  RH  084%=      5-min Rain = 0
KASR 100535Z 24005KT M02/M04 A3038 RMK A01 T10151039  RH  084%=      5-min Rain = 0
KASR 100540Z 24006KT M01/M04 A3038 RMK A01 T10141038  RH  085%=      5-min Rain = 0
KASR 100545Z 24005KT M01/M04 A3038 RMK A01 T10141038  RH  085%=      5-min Rain = 0
KASR 100550Z 24005KT M01/M04 A3038 RMK A01 T10141038  RH  085%=      5-min Rain = 0
KASR 100555Z 25004KT M01/M04 A3038 RMK A01 T10141037  RH  085%=      5-min Rain = 0

Page generated in 0.0088 seconds.